sensor_id;sensor_type;location;lat;lon;timestamp;pressure;altitude;pressure_sealevel;temperature;humidity
57250;BME280;43102;52.014;-0.680;2023-04-15T00:00:00;100066;;;9.06;79.49
57250;BME280;43102;52.014;-0.680;2023-04-15T00:01:00;100070;;;9.05;79.27
57250;BME280;43102;52.014;-0.680;2023-04-15T00:02:00;100070;;;9.05;79.27
57250;BME280;43102;52.014;-0.680;2023-04-15T00:03:00;100070;;;9.05;79.27
57250;BME280;43102;52.014;-0.680;2023-04-15T00:04:00;100070;;;9.05;79.27
57250;BME280;43102;52.014;-0.680;2023-04-15T00:05:00;100070;;;9.05;79.27
57250;BME280;43102;52.014;-0.680;2023-04-15T00:06:00;100074;;;8.99;79.46
57250;BME280;43102;52.014;-0.680;2023-04-15T00:07:00;100074;;;8.99;79.46
57250;BME280;43102;52.014;-0.680;2023-04-15T00:08:00;100074;;;8.99;79.46
57250;BME280;43102;52.014;-0.680;2023-04-15T00:09:00;100074;;;8.99;79.46
57250;BME280;43102;52.014;-0.680;2023-04-15T00:10:00;100074;;;8.99;79.46
57250;BME280;43102;52.014;-0.680;2023-04-15T00:11:00;100074;;;9.05;79.31
57250;BME280;43102;52.014;-0.680;2023-04-15T00:12:00;100074;;;9.05;79.31
57250;BME280;43102;52.014;-0.680;2023-04-15T00:13:00;100074;;;9.05;79.31
57250;BME280;43102;52.014;-0.680;2023-04-15T00:14:00;100074;;;9.05;79.31
57250;BME280;43102;52.014;-0.680;2023-04-15T00:15:00;100074;;;9.05;79.31
57250;BME280;43102;52.014;-0.680;2023-04-15T00:16:00;100075;;;8.92;79.63
57250;BME280;43102;52.014;-0.680;2023-04-15T00:17:00;100075;;;8.92;79.63
57250;BME280;43102;52.014;-0.680;2023-04-15T00:18:00;100075;;;8.92;79.63
57250;BME280;43102;52.014;-0.680;2023-04-15T00:19:00;100075;;;8.92;79.63
57250;BME280;43102;52.014;-0.680;2023-04-15T00:20:00;100075;;;8.92;79.63
57250;BME280;43102;52.014;-0.680;2023-04-15T00:21:00;100077;;;8.95;79.83
57250;BME280;43102;52.014;-0.680;2023-04-15T00:22:00;100077;;;8.95;79.83
57250;BME280;43102;52.014;-0.680;2023-04-15T00:23:00;100077;;;8.95;79.83
57250;BME280;43102;52.014;-0.680;2023-04-15T00:24:00;100077;;;8.95;79.83
57250;BME280;43102;52.014;-0.680;2023-04-15T00:25:00;100077;;;8.95;79.83
57250;BME280;43102;52.014;-0.680;2023-04-15T00:26:00;100086;;;8.92;79.90
57250;BME280;43102;52.014;-0.680;2023-04-15T00:27:00;100086;;;8.92;79.90
57250;BME280;43102;52.014;-0.680;2023-04-15T00:28:00;100086;;;8.92;79.90
57250;BME280;43102;52.014;-0.680;2023-04-15T00:29:00;100086;;;8.92;79.90
57250;BME280;43102;52.014;-0.680;2023-04-15T00:30:00;100086;;;8.92;79.90
57250;BME280;43102;52.014;-0.680;2023-04-15T00:31:00;100096;;;8.95;79.79
57250;BME280;43102;52.014;-0.680;2023-04-15T00:32:00;100096;;;8.95;79.79
57250;BME280;43102;52.014;-0.680;2023-04-15T00:33:00;100096;;;8.95;79.79
57250;BME280;43102;52.014;-0.680;2023-04-15T00:34:00;100096;;;8.95;79.79
57250;BME280;43102;52.014;-0.680;2023-04-15T00:35:00;100096;;;8.95;79.79
57250;BME280;43102;52.014;-0.680;2023-04-15T00:36:00;100093;;;8.95;79.95
57250;BME280;43102;52.014;-0.680;2023-04-15T00:37:00;100093;;;8.95;79.95
57250;BME280;43102;52.014;-0.680;2023-04-15T00:38:00;100093;;;8.95;79.95
57250;BME280;43102;52.014;-0.680;2023-04-15T00:39:00;100093;;;8.95;79.95
57250;BME280;43102;52.014;-0.680;2023-04-15T00:40:00;100093;;;8.95;79.95
57250;BME280;43102;52.014;-0.680;2023-04-15T00:41:00;100101;;;8.88;80.07
57250;BME280;43102;52.014;-0.680;2023-04-15T00:42:00;100101;;;8.88;80.07
57250;BME280;43102;52.014;-0.680;2023-04-15T00:43:00;100101;;;8.88;80.07
57250;BME280;43102;52.014;-0.680;2023-04-15T00:44:00;100101;;;8.88;80.07
57250;BME280;43102;52.014;-0.680;2023-04-15T00:45:00;100101;;;8.88;80.07
57250;BME280;43102;52.014;-0.680;2023-04-15T00:46:00;100109;;;8.90;80.03
57250;BME280;43102;52.014;-0.680;2023-04-15T00:47:00;100109;;;8.90;80.03
57250;BME280;43102;52.014;-0.680;2023-04-15T00:48:00;100109;;;8.90;80.03
57250;BME280;43102;52.014;-0.680;2023-04-15T00:49:00;100109;;;8.90;80.03
57250;BME280;43102;52.014;-0.680;2023-04-15T00:50:00;100109;;;8.90;80.03
57250;BME280;43102;52.014;-0.680;2023-04-15T00:51:00;100105;;;8.81;79.93
57250;BME280;43102;52.014;-0.680;2023-04-15T00:52:00;100105;;;8.81;79.93
57250;BME280;43102;52.014;-0.680;2023-04-15T00:53:00;100105;;;8.81;79.93
57250;BME280;43102;52.014;-0.680;2023-04-15T00:54:00;100105;;;8.81;79.93
57250;BME280;43102;52.014;-0.680;2023-04-15T00:55:00;100105;;;8.81;79.93
57250;BME280;43102;52.014;-0.680;2023-04-15T00:56:00;100114;;;8.74;79.68
57250;BME280;43102;52.014;-0.680;2023-04-15T00:57:00;100114;;;8.74;79.68
57250;BME280;43102;52.014;-0.680;2023-04-15T00:58:00;100114;;;8.74;79.68
57250;BME280;43102;52.014;-0.680;2023-04-15T00:59:00;100114;;;8.74;79.68
57250;BME280;43102;52.014;-0.680;2023-04-15T01:00:00;100114;;;8.74;79.68
57250;BME280;43102;52.014;-0.680;2023-04-15T01:01:00;100118;;;8.69;79.65
57250;BME280;43102;52.014;-0.680;2023-04-15T01:02:00;100118;;;8.69;79.65
57250;BME280;43102;52.014;-0.680;2023-04-15T01:03:00;100118;;;8.69;79.65
57250;BME280;43102;52.014;-0.680;2023-04-15T01:04:00;100118;;;8.69;79.65
57250;BME280;43102;52.014;-0.680;2023-04-15T01:05:00;100118;;;8.69;79.65
57250;BME280;43102;52.014;-0.680;2023-04-15T01:06:00;100118;;;8.67;79.73
57250;BME280;43102;52.014;-0.680;2023-04-15T01:07:00;100118;;;8.67;79.73
57250;BME280;43102;52.014;-0.680;2023-04-15T01:08:00;100118;;;8.67;79.73
57250;BME280;43102;52.014;-0.680;2023-04-15T01:09:00;100118;;;8.67;79.73
57250;BME280;43102;52.014;-0.680;2023-04-15T01:10:00;100118;;;8.67;79.73
57250;BME280;43102;52.014;-0.680;2023-04-15T01:11:00;100132;;;8.54;79.95
57250;BME280;43102;52.014;-0.680;2023-04-15T01:12:00;100132;;;8.54;79.95
57250;BME280;43102;52.014;-0.680;2023-04-15T01:13:01;100132;;;8.54;79.95
57250;BME280;43102;52.014;-0.680;2023-04-15T01:14:00;100132;;;8.54;79.95
57250;BME280;43102;52.014;-0.680;2023-04-15T01:15:00;100132;;;8.54;79.95
57250;BME280;43102;52.014;-0.680;2023-04-15T01:16:00;100139;;;8.63;79.76
57250;BME280;43102;52.014;-0.680;2023-04-15T01:17:00;100139;;;8.63;79.76
57250;BME280;43102;52.014;-0.680;2023-04-15T01:18:00;100139;;;8.63;79.76
57250;BME280;43102;52.014;-0.680;2023-04-15T01:19:00;100139;;;8.63;79.76
57250;BME280;43102;52.014;-0.680;2023-04-15T01:20:00;100139;;;8.63;79.76
57250;BME280;43102;52.014;-0.680;2023-04-15T01:21:00;100148;;;8.68;79.84
57250;BME280;43102;52.014;-0.680;2023-04-15T01:22:00;100148;;;8.68;79.84
57250;BME280;43102;52.014;-0.680;2023-04-15T01:23:00;100148;;;8.68;79.84
57250;BME280;43102;52.014;-0.680;2023-04-15T01:24:00;100148;;;8.68;79.84
57250;BME280;43102;52.014;-0.680;2023-04-15T01:25:04;100148;;;8.68;79.84
57250;BME280;43102;52.014;-0.680;2023-04-15T01:26:00;100150;;;8.65;79.78
57250;BME280;43102;52.014;-0.680;2023-04-15T01:27:00;100150;;;8.65;79.78
57250;BME280;43102;52.014;-0.680;2023-04-15T01:28:00;100150;;;8.65;79.78
57250;BME280;43102;52.014;-0.680;2023-04-15T01:29:00;100150;;;8.65;79.78
57250;BME280;43102;52.014;-0.680;2023-04-15T01:30:00;100150;;;8.65;79.78
57250;BME280;43102;52.014;-0.680;2023-04-15T01:31:08;100152;;;8.49;80.38
57250;BME280;43102;52.014;-0.680;2023-04-15T01:32:00;100152;;;8.49;80.38
57250;BME280;43102;52.014;-0.680;2023-04-15T01:33:00;100152;;;8.49;80.38
57250;BME280;43102;52.014;-0.680;2023-04-15T01:34:00;100152;;;8.49;80.38
57250;BME280;43102;52.014;-0.680;2023-04-15T01:35:00;100152;;;8.49;80.38
57250;BME280;43102;52.014;-0.680;2023-04-15T01:36:00;100163;;;8.46;80.46
57250;BME280;43102;52.014;-0.680;2023-04-15T01:37:00;100163;;;8.46;80.46
57250;BME280;43102;52.014;-0.680;2023-04-15T01:38:02;100163;;;8.46;80.46
57250;BME280;43102;52.014;-0.680;2023-04-15T01:39:00;100163;;;8.46;80.46
57250;BME280;43102;52.014;-0.680;2023-04-15T01:40:00;100163;;;8.46;80.46
57250;BME280;43102;52.014;-0.680;2023-04-15T01:41:00;100169;;;8.33;80.64
57250;BME280;43102;52.014;-0.680;2023-04-15T01:42:00;100169;;;8.33;80.64
57250;BME280;43102;52.014;-0.680;2023-04-15T01:43:00;100169;;;8.33;80.64
57250;BME280;43102;52.014;-0.680;2023-04-15T01:44:00;100169;;;8.33;80.64
57250;BME280;43102;52.014;-0.680;2023-04-15T01:45:00;100169;;;8.33;80.64
57250;BME280;43102;52.014;-0.680;2023-04-15T01:46:00;100178;;;8.43;80.25
57250;BME280;43102;52.014;-0.680;2023-04-15T01:47:00;100178;;;8.43;80.25
57250;BME280;43102;52.014;-0.680;2023-04-15T01:48:00;100178;;;8.43;80.25
57250;BME280;43102;52.014;-0.680;2023-04-15T01:49:00;100178;;;8.43;80.25
57250;BME280;43102;52.014;-0.680;2023-04-15T01:50:00;100178;;;8.43;80.25
57250;BME280;43102;52.014;-0.680;2023-04-15T01:51:00;100182;;;8.49;80.17
57250;BME280;43102;52.014;-0.680;2023-04-15T01:52:00;100182;;;8.49;80.17
57250;BME280;43102;52.014;-0.680;2023-04-15T01:53:00;100182;;;8.49;80.17
57250;BME280;43102;52.014;-0.680;2023-04-15T01:54:00;100182;;;8.49;80.17
57250;BME280;43102;52.014;-0.680;2023-04-15T01:55:00;100182;;;8.49;80.17
57250;BME280;43102;52.014;-0.680;2023-04-15T01:56:00;100193;;;8.42;80.28
57250;BME280;43102;52.014;-0.680;2023-04-15T01:57:00;100193;;;8.42;80.28
57250;BME280;43102;52.014;-0.680;2023-04-15T01:58:00;100193;;;8.42;80.28
57250;BME280;43102;52.014;-0.680;2023-04-15T01:59:00;100193;;;8.42;80.28
57250;BME280;43102;52.014;-0.680;2023-04-15T02:00:00;100193;;;8.42;80.28
57250;BME280;43102;52.014;-0.680;2023-04-15T02:01:00;100197;;;8.35;80.33
57250;BME280;43102;52.014;-0.680;2023-04-15T02:02:00;100197;;;8.35;80.33
57250;BME280;43102;52.014;-0.680;2023-04-15T02:03:00;100197;;;8.35;80.33
57250;BME280;43102;52.014;-0.680;2023-04-15T02:04:00;100197;;;8.35;80.33
57250;BME280;43102;52.014;-0.680;2023-04-15T02:05:00;100197;;;8.35;80.33
57250;BME280;43102;52.014;-0.680;2023-04-15T02:06:00;100211;;;8.46;80.07
57250;BME280;43102;52.014;-0.680;2023-04-15T02:07:00;100211;;;8.46;80.07
57250;BME280;43102;52.014;-0.680;2023-04-15T02:08:00;100211;;;8.46;80.07
57250;BME280;43102;52.014;-0.680;2023-04-15T02:09:00;100211;;;8.46;80.07
57250;BME280;43102;52.014;-0.680;2023-04-15T02:10:00;100211;;;8.46;80.07
57250;BME280;43102;52.014;-0.680;2023-04-15T02:11:00;100218;;;8.44;80.06
57250;BME280;43102;52.014;-0.680;2023-04-15T02:12:00;100218;;;8.44;80.06
57250;BME280;43102;52.014;-0.680;2023-04-15T02:13:00;100218;;;8.44;80.06
57250;BME280;43102;52.014;-0.680;2023-04-15T02:14:00;100218;;;8.44;80.06
57250;BME280;43102;52.014;-0.680;2023-04-15T02:15:00;100218;;;8.44;80.06
57250;BME280;43102;52.014;-0.680;2023-04-15T02:16:00;100220;;;8.48;80.15
57250;BME280;43102;52.014;-0.680;2023-04-15T02:17:00;100220;;;8.48;80.15
57250;BME280;43102;52.014;-0.680;2023-04-15T02:18:00;100220;;;8.48;80.15
57250;BME280;43102;52.014;-0.680;2023-04-15T02:19:00;100220;;;8.48;80.15
57250;BME280;43102;52.014;-0.680;2023-04-15T02:20:00;100220;;;8.48;80.15
57250;BME280;43102;52.014;-0.680;2023-04-15T02:21:00;100231;;;8.49;80.18
57250;BME280;43102;52.014;-0.680;2023-04-15T02:22:00;100231;;;8.49;80.18
57250;BME280;43102;52.014;-0.680;2023-04-15T02:23:00;100231;;;8.49;80.18
57250;BME280;43102;52.014;-0.680;2023-04-15T02:24:00;100231;;;8.49;80.18
57250;BME280;43102;52.014;-0.680;2023-04-15T02:25:00;100231;;;8.49;80.18
57250;BME280;43102;52.014;-0.680;2023-04-15T02:26:00;100234;;;8.41;80.39
57250;BME280;43102;52.014;-0.680;2023-04-15T02:27:00;100234;;;8.41;80.39
57250;BME280;43102;52.014;-0.680;2023-04-15T02:28:00;100234;;;8.41;80.39
57250;BME280;43102;52.014;-0.680;2023-04-15T02:29:00;100234;;;8.41;80.39
57250;BME280;43102;52.014;-0.680;2023-04-15T02:30:00;100234;;;8.41;80.39
57250;BME280;43102;52.014;-0.680;2023-04-15T02:31:03;100238;;;8.40;80.49
57250;BME280;43102;52.014;-0.680;2023-04-15T02:32:00;100238;;;8.40;80.49
57250;BME280;43102;52.014;-0.680;2023-04-15T02:33:00;100238;;;8.40;80.49
57250;BME280;43102;52.014;-0.680;2023-04-15T02:34:00;100238;;;8.40;80.49
57250;BME280;43102;52.014;-0.680;2023-04-15T02:35:01;100238;;;8.40;80.49
57250;BME280;43102;52.014;-0.680;2023-04-15T02:36:00;100244;;;8.42;80.46
57250;BME280;43102;52.014;-0.680;2023-04-15T02:37:00;100244;;;8.42;80.46
57250;BME280;43102;52.014;-0.680;2023-04-15T02:38:00;100244;;;8.42;80.46
57250;BME280;43102;52.014;-0.680;2023-04-15T02:39:00;100244;;;8.42;80.46
57250;BME280;43102;52.014;-0.680;2023-04-15T02:40:00;100244;;;8.42;80.46
57250;BME280;43102;52.014;-0.680;2023-04-15T02:41:00;100248;;;8.46;80.41
57250;BME280;43102;52.014;-0.680;2023-04-15T02:42:00;100248;;;8.46;80.41
57250;BME280;43102;52.014;-0.680;2023-04-15T02:43:00;100248;;;8.46;80.41
57250;BME280;43102;52.014;-0.680;2023-04-15T02:44:00;100248;;;8.46;80.41
57250;BME280;43102;52.014;-0.680;2023-04-15T02:45:00;100248;;;8.46;80.41
57250;BME280;43102;52.014;-0.680;2023-04-15T02:46:00;100252;;;8.45;80.49
57250;BME280;43102;52.014;-0.680;2023-04-15T02:47:00;100252;;;8.45;80.49
57250;BME280;43102;52.014;-0.680;2023-04-15T02:48:00;100252;;;8.45;80.49
57250;BME280;43102;52.014;-0.680;2023-04-15T02:49:00;100252;;;8.45;80.49
57250;BME280;43102;52.014;-0.680;2023-04-15T02:50:01;100252;;;8.45;80.49
57250;BME280;43102;52.014;-0.680;2023-04-15T02:51:10;100258;;;8.28;80.81
57250;BME280;43102;52.014;-0.680;2023-04-15T02:52:00;100258;;;8.28;80.81
57250;BME280;43102;52.014;-0.680;2023-04-15T02:53:00;100258;;;8.28;80.81
57250;BME280;43102;52.014;-0.680;2023-04-15T02:54:00;100258;;;8.28;80.81
57250;BME280;43102;52.014;-0.680;2023-04-15T02:55:00;100258;;;8.28;80.81
57250;BME280;43102;52.014;-0.680;2023-04-15T02:56:00;100263;;;8.31;80.99
57250;BME280;43102;52.014;-0.680;2023-04-15T02:57:00;100263;;;8.31;80.99
57250;BME280;43102;52.014;-0.680;2023-04-15T02:58:00;100263;;;8.31;80.99
57250;BME280;43102;52.014;-0.680;2023-04-15T02:59:00;100263;;;8.31;80.99
57250;BME280;43102;52.014;-0.680;2023-04-15T03:00:00;100263;;;8.31;80.99
57250;BME280;43102;52.014;-0.680;2023-04-15T03:01:00;100270;;;8.36;80.94
57250;BME280;43102;52.014;-0.680;2023-04-15T03:02:00;100270;;;8.36;80.94
57250;BME280;43102;52.014;-0.680;2023-04-15T03:03:01;100270;;;8.36;80.94
57250;BME280;43102;52.014;-0.680;2023-04-15T03:04:00;100270;;;8.36;80.94
57250;BME280;43102;52.014;-0.680;2023-04-15T03:05:00;100270;;;8.36;80.94
57250;BME280;43102;52.014;-0.680;2023-04-15T03:06:00;100282;;;8.37;80.88
57250;BME280;43102;52.014;-0.680;2023-04-15T03:07:00;100282;;;8.37;80.88
57250;BME280;43102;52.014;-0.680;2023-04-15T03:08:00;100282;;;8.37;80.88
57250;BME280;43102;52.014;-0.680;2023-04-15T03:09:00;100282;;;8.37;80.88
57250;BME280;43102;52.014;-0.680;2023-04-15T03:10:00;100282;;;8.37;80.88
57250;BME280;43102;52.014;-0.680;2023-04-15T03:11:00;100289;;;8.32;81.17
57250;BME280;43102;52.014;-0.680;2023-04-15T03:12:00;100289;;;8.32;81.17
57250;BME280;43102;52.014;-0.680;2023-04-15T03:13:00;100289;;;8.32;81.17
57250;BME280;43102;52.014;-0.680;2023-04-15T03:14:00;100289;;;8.32;81.17
57250;BME280;43102;52.014;-0.680;2023-04-15T03:15:00;100289;;;8.32;81.17
57250;BME280;43102;52.014;-0.680;2023-04-15T03:16:00;100294;;;8.34;81.16
57250;BME280;43102;52.014;-0.680;2023-04-15T03:17:00;100294;;;8.34;81.16
57250;BME280;43102;52.014;-0.680;2023-04-15T03:18:00;100294;;;8.34;81.16
57250;BME280;43102;52.014;-0.680;2023-04-15T03:19:00;100294;;;8.34;81.16
57250;BME280;43102;52.014;-0.680;2023-04-15T03:20:00;100294;;;8.34;81.16
57250;BME280;43102;52.014;-0.680;2023-04-15T03:21:00;100309;;;8.25;81.45
57250;BME280;43102;52.014;-0.680;2023-04-15T03:22:00;100309;;;8.25;81.45
57250;BME280;43102;52.014;-0.680;2023-04-15T03:23:00;100309;;;8.25;81.45
57250;BME280;43102;52.014;-0.680;2023-04-15T03:24:00;100309;;;8.25;81.45
57250;BME280;43102;52.014;-0.680;2023-04-15T03:25:00;100309;;;8.25;81.45
57250;BME280;43102;52.014;-0.680;2023-04-15T03:26:01;100308;;;8.26;81.70
57250;BME280;43102;52.014;-0.680;2023-04-15T03:27:00;100308;;;8.26;81.70
57250;BME280;43102;52.014;-0.680;2023-04-15T03:28:00;100308;;;8.26;81.70
57250;BME280;43102;52.014;-0.680;2023-04-15T03:29:00;100308;;;8.26;81.70
57250;BME280;43102;52.014;-0.680;2023-04-15T03:30:00;100308;;;8.26;81.70
57250;BME280;43102;52.014;-0.680;2023-04-15T03:31:00;100320;;;8.21;82.15
57250;BME280;43102;52.014;-0.680;2023-04-15T03:32:00;100320;;;8.21;82.15
57250;BME280;43102;52.014;-0.680;2023-04-15T03:33:00;100320;;;8.21;82.15
57250;BME280;43102;52.014;-0.680;2023-04-15T03:34:00;100320;;;8.21;82.15
57250;BME280;43102;52.014;-0.680;2023-04-15T03:35:00;100320;;;8.21;82.15
57250;BME280;43102;52.014;-0.680;2023-04-15T03:36:00;100327;;;8.34;81.52
57250;BME280;43102;52.014;-0.680;2023-04-15T03:37:00;100327;;;8.34;81.52
57250;BME280;43102;52.014;-0.680;2023-04-15T03:38:00;100327;;;8.34;81.52
57250;BME280;43102;52.014;-0.680;2023-04-15T03:39:00;100327;;;8.34;81.52
57250;BME280;43102;52.014;-0.680;2023-04-15T03:40:01;100327;;;8.34;81.52
57250;BME280;43102;52.014;-0.680;2023-04-15T03:41:00;100335;;;8.34;81.67
57250;BME280;43102;52.014;-0.680;2023-04-15T03:42:00;100335;;;8.34;81.67
57250;BME280;43102;52.014;-0.680;2023-04-15T03:43:00;100335;;;8.34;81.67
57250;BME280;43102;52.014;-0.680;2023-04-15T03:44:00;100335;;;8.34;81.67
57250;BME280;43102;52.014;-0.680;2023-04-15T03:45:00;100335;;;8.34;81.67
57250;BME280;43102;52.014;-0.680;2023-04-15T03:46:00;100337;;;8.25;81.83
57250;BME280;43102;52.014;-0.680;2023-04-15T03:47:00;100337;;;8.25;81.83
57250;BME280;43102;52.014;-0.680;2023-04-15T03:48:00;100337;;;8.25;81.83
57250;BME280;43102;52.014;-0.680;2023-04-15T03:49:00;100337;;;8.25;81.83
57250;BME280;43102;52.014;-0.680;2023-04-15T03:50:00;100337;;;8.25;81.83
57250;BME280;43102;52.014;-0.680;2023-04-15T03:51:00;100344;;;8.23;82.03
57250;BME280;43102;52.014;-0.680;2023-04-15T03:52:00;100344;;;8.23;82.03
57250;BME280;43102;52.014;-0.680;2023-04-15T03:53:00;100344;;;8.23;82.03
57250;BME280;43102;52.014;-0.680;2023-04-15T03:54:00;100344;;;8.23;82.03
57250;BME280;43102;52.014;-0.680;2023-04-15T03:55:00;100344;;;8.23;82.03
57250;BME280;43102;52.014;-0.680;2023-04-15T03:56:00;100358;;;8.24;81.95
57250;BME280;43102;52.014;-0.680;2023-04-15T03:57:00;100358;;;8.24;81.95
57250;BME280;43102;52.014;-0.680;2023-04-15T03:58:00;100358;;;8.24;81.95
57250;BME280;43102;52.014;-0.680;2023-04-15T03:59:00;100358;;;8.24;81.95
57250;BME280;43102;52.014;-0.680;2023-04-15T04:00:00;100358;;;8.24;81.95
57250;BME280;43102;52.014;-0.680;2023-04-15T04:01:00;100364;;;8.15;82.19
57250;BME280;43102;52.014;-0.680;2023-04-15T04:02:00;100364;;;8.15;82.19
57250;BME280;43102;52.014;-0.680;2023-04-15T04:03:00;100364;;;8.15;82.19
57250;BME280;43102;52.014;-0.680;2023-04-15T04:04:00;100364;;;8.15;82.19
57250;BME280;43102;52.014;-0.680;2023-04-15T04:05:00;100364;;;8.15;82.19
57250;BME280;43102;52.014;-0.680;2023-04-15T04:06:00;100372;;;8.20;82.15
57250;BME280;43102;52.014;-0.680;2023-04-15T04:07:00;100372;;;8.20;82.15
57250;BME280;43102;52.014;-0.680;2023-04-15T04:08:00;100372;;;8.20;82.15
57250;BME280;43102;52.014;-0.680;2023-04-15T04:09:00;100372;;;8.20;82.15
57250;BME280;43102;52.014;-0.680;2023-04-15T04:10:01;100372;;;8.20;82.15
57250;BME280;43102;52.014;-0.680;2023-04-15T04:11:00;100375;;;8.34;82.00
57250;BME280;43102;52.014;-0.680;2023-04-15T04:12:00;100375;;;8.34;82.00
57250;BME280;43102;52.014;-0.680;2023-04-15T04:13:00;100375;;;8.34;82.00
57250;BME280;43102;52.014;-0.680;2023-04-15T04:14:00;100375;;;8.34;82.00
57250;BME280;43102;52.014;-0.680;2023-04-15T04:15:00;100375;;;8.34;82.00
57250;BME280;43102;52.014;-0.680;2023-04-15T04:16:00;100379;;;8.34;81.96
57250;BME280;43102;52.014;-0.680;2023-04-15T04:17:00;100379;;;8.34;81.96
57250;BME280;43102;52.014;-0.680;2023-04-15T04:18:00;100379;;;8.34;81.96
57250;BME280;43102;52.014;-0.680;2023-04-15T04:19:00;100379;;;8.34;81.96
57250;BME280;43102;52.014;-0.680;2023-04-15T04:20:00;100379;;;8.34;81.96
57250;BME280;43102;52.014;-0.680;2023-04-15T04:21:00;100396;;;8.28;82.20
57250;BME280;43102;52.014;-0.680;2023-04-15T04:22:00;100396;;;8.28;82.20
57250;BME280;43102;52.014;-0.680;2023-04-15T04:23:00;100396;;;8.28;82.20
57250;BME280;43102;52.014;-0.680;2023-04-15T04:24:00;100396;;;8.28;82.20
57250;BME280;43102;52.014;-0.680;2023-04-15T04:25:00;100396;;;8.28;82.20
57250;BME280;43102;52.014;-0.680;2023-04-15T04:26:00;100404;;;8.19;82.27
57250;BME280;43102;52.014;-0.680;2023-04-15T04:27:00;100404;;;8.19;82.27
57250;BME280;43102;52.014;-0.680;2023-04-15T04:28:00;100404;;;8.19;82.27
57250;BME280;43102;52.014;-0.680;2023-04-15T04:29:00;100404;;;8.19;82.27
57250;BME280;43102;52.014;-0.680;2023-04-15T04:30:00;100404;;;8.19;82.27
57250;BME280;43102;52.014;-0.680;2023-04-15T04:31:00;100409;;;8.21;81.99
57250;BME280;43102;52.014;-0.680;2023-04-15T04:32:00;100409;;;8.21;81.99
57250;BME280;43102;52.014;-0.680;2023-04-15T04:33:00;100409;;;8.21;81.99
57250;BME280;43102;52.014;-0.680;2023-04-15T04:34:00;100409;;;8.21;81.99
57250;BME280;43102;52.014;-0.680;2023-04-15T04:35:00;100409;;;8.21;81.99
57250;BME280;43102;52.014;-0.680;2023-04-15T04:36:00;100424;;;8.21;81.97
57250;BME280;43102;52.014;-0.680;2023-04-15T04:37:00;100424;;;8.21;81.97
57250;BME280;43102;52.014;-0.680;2023-04-15T04:38:00;100424;;;8.21;81.97
57250;BME280;43102;52.014;-0.680;2023-04-15T04:39:00;100424;;;8.21;81.97
57250;BME280;43102;52.014;-0.680;2023-04-15T04:40:00;100424;;;8.21;81.97
57250;BME280;43102;52.014;-0.680;2023-04-15T04:41:00;100428;;;8.18;82.07
57250;BME280;43102;52.014;-0.680;2023-04-15T04:42:00;100428;;;8.18;82.07
57250;BME280;43102;52.014;-0.680;2023-04-15T04:43:00;100428;;;8.18;82.07
57250;BME280;43102;52.014;-0.680;2023-04-15T04:44:00;100428;;;8.18;82.07
57250;BME280;43102;52.014;-0.680;2023-04-15T04:45:00;100428;;;8.18;82.07
57250;BME280;43102;52.014;-0.680;2023-04-15T04:46:00;100430;;;8.15;82.27
57250;BME280;43102;52.014;-0.680;2023-04-15T04:47:00;100430;;;8.15;82.27
57250;BME280;43102;52.014;-0.680;2023-04-15T04:48:00;100430;;;8.15;82.27
57250;BME280;43102;52.014;-0.680;2023-04-15T04:49:00;100430;;;8.15;82.27
57250;BME280;43102;52.014;-0.680;2023-04-15T04:50:00;100430;;;8.15;82.27
57250;BME280;43102;52.014;-0.680;2023-04-15T04:51:00;100442;;;8.09;82.38
57250;BME280;43102;52.014;-0.680;2023-04-15T04:52:00;100442;;;8.09;82.38
57250;BME280;43102;52.014;-0.680;2023-04-15T04:53:00;100442;;;8.09;82.38
57250;BME280;43102;52.014;-0.680;2023-04-15T04:54:00;100442;;;8.09;82.38
57250;BME280;43102;52.014;-0.680;2023-04-15T04:55:00;100442;;;8.09;82.38
57250;BME280;43102;52.014;-0.680;2023-04-15T04:56:00;100458;;;8.10;82.31
57250;BME280;43102;52.014;-0.680;2023-04-15T04:57:00;100458;;;8.10;82.31
57250;BME280;43102;52.014;-0.680;2023-04-15T04:58:00;100458;;;8.10;82.31
57250;BME280;43102;52.014;-0.680;2023-04-15T04:59:00;100458;;;8.10;82.31
57250;BME280;43102;52.014;-0.680;2023-04-15T05:00:00;100458;;;8.10;82.31
57250;BME280;43102;52.014;-0.680;2023-04-15T05:01:00;100465;;;8.30;81.74
57250;BME280;43102;52.014;-0.680;2023-04-15T05:02:00;100465;;;8.30;81.74
57250;BME280;43102;52.014;-0.680;2023-04-15T05:03:00;100465;;;8.30;81.74
57250;BME280;43102;52.014;-0.680;2023-04-15T05:04:00;100465;;;8.30;81.74
57250;BME280;43102;52.014;-0.680;2023-04-15T05:05:00;100465;;;8.30;81.74
57250;BME280;43102;52.014;-0.680;2023-04-15T05:06:00;100484;;;8.14;82.09
57250;BME280;43102;52.014;-0.680;2023-04-15T05:07:00;100484;;;8.14;82.09
57250;BME280;43102;52.014;-0.680;2023-04-15T05:08:00;100484;;;8.14;82.09
57250;BME280;43102;52.014;-0.680;2023-04-15T05:09:00;100484;;;8.14;82.09
57250;BME280;43102;52.014;-0.680;2023-04-15T05:10:00;100484;;;8.14;82.09
57250;BME280;43102;52.014;-0.680;2023-04-15T05:11:00;100491;;;8.25;81.67
57250;BME280;43102;52.014;-0.680;2023-04-15T05:12:00;100491;;;8.25;81.67
57250;BME280;43102;52.014;-0.680;2023-04-15T05:13:00;100491;;;8.25;81.67
57250;BME280;43102;52.014;-0.680;2023-04-15T05:14:00;100491;;;8.25;81.67
57250;BME280;43102;52.014;-0.680;2023-04-15T05:15:00;100491;;;8.25;81.67
57250;BME280;43102;52.014;-0.680;2023-04-15T05:16:00;100493;;;8.22;81.67
57250;BME280;43102;52.014;-0.680;2023-04-15T05:17:00;100493;;;8.22;81.67
57250;BME280;43102;52.014;-0.680;2023-04-15T05:18:00;100493;;;8.22;81.67
57250;BME280;43102;52.014;-0.680;2023-04-15T05:19:00;100493;;;8.22;81.67
57250;BME280;43102;52.014;-0.680;2023-04-15T05:20:00;100493;;;8.22;81.67
57250;BME280;43102;52.014;-0.680;2023-04-15T05:21:00;100504;;;8.30;81.49
57250;BME280;43102;52.014;-0.680;2023-04-15T05:22:00;100504;;;8.30;81.49
57250;BME280;43102;52.014;-0.680;2023-04-15T05:23:00;100504;;;8.30;81.49
57250;BME280;43102;52.014;-0.680;2023-04-15T05:24:00;100504;;;8.30;81.49
57250;BME280;43102;52.014;-0.680;2023-04-15T05:25:00;100504;;;8.30;81.49
57250;BME280;43102;52.014;-0.680;2023-04-15T05:26:00;100516;;;8.26;81.50